PILOTS ONLINE: 612    ATC ONLINE: 104

NFFN

Nadi International Airport

Location

IATA NAN
City Nadi
Country  Fiji
Latitude 17° 45' 19" S
Longitude 177° 26' 34" E
Elevation 59 ft
Type Medium Airport

Map

Weather

METAR
2014/09/20 14:00
NFFN 201400Z 08003KT 9999 FEW030 BKN050 22/20 Q1013 NOSIG
TAF
2014/09/20 12:06
TAF TAF NFFN 201004Z 2012/2112 VRB03KT 9999 FEW030 SCT045 
      BECMG 2021/2023 29015KT 
      BECMG 2104/2106 27005KT

Runways

02/20 10739 ft / 150 ft
09/27 7007 ft / 150 ft

Outbound flights

Callsign Flying to Pilot ATD/STD ETA Aircraft
N300ES  YBCG - Gold Coast
Australia
Kent Garbi
1190477
12:05 15:16 C750

Inbound flights

Callsign Flying from Pilot ATD ETA Aircraft
FDX403  PANC - Anchorage
United States
LLOYD CHRISTIE JR
856780
09:41 19:56 B772